KACV

California Redwood Coast-Humboldt County Airport

Arcata/Eureka, California, USA
METAR KACV 170553Z AUTO 01006KT 10SM CLR 10/02 A3018 RMK AO2 SLP224 T01000017 10128 20089 53004
Observed Flight Rules
Dec-17 @ 05:53 UTC (20 minutes ago) Visual Flight Rules
Wind Visibility Clouds
10° at 6 knots 10 miles
  • Clear skies
Temperatures Readings
Current 10°C / 50°F
Dewpoint 2°C / 36°F
Humidity 58%
Altimeter 30.18" Hg
Pressure 1022.4 hPa
Elevation 67
METAR KACV 170553Z AUTO 01006KT 10SM CLR 10/02 A3018 RMK AO2 SLP224 T01000017 10128 20089 53004
Observed Flight Rules
Dec-17 @ 05:53 UTC
(20 minutes ago)
VFR
Wind Visibility
10° at 6 knots 10 miles
Clouds
  • Clear skies
Temperature Dewpoint
10°C / 50°F 2°C / 36°F
Humidity Altimeter Pressure
58% 30.18" Hg 1022.4 hPa